sensor_id;sensor_type;location;lat;lon;timestamp;pressure;altitude;pressure_sealevel;temperature;humidity
75219;BME280;63801;49.414;19.474;2023-04-07T00:01:35;93544.03;;;-0.62;74.67
75219;BME280;63801;49.414;19.474;2023-04-07T00:03:35;93546.38;;;-0.61;74.60
75219;BME280;63801;49.414;19.474;2023-04-07T00:05:37;93548.56;;;-0.63;75.43
75219;BME280;63801;49.414;19.474;2023-04-07T00:07:37;93546.97;;;-0.64;74.74
75219;BME280;63801;49.414;19.474;2023-04-07T00:09:38;93544.59;;;-0.65;74.77
75219;BME280;63801;49.414;19.474;2023-04-07T00:11:38;93536.38;;;-0.64;74.85
75219;BME280;63801;49.414;19.474;2023-04-07T00:13:38;93537.97;;;-0.63;74.77
75219;BME280;63801;49.414;19.474;2023-04-07T00:15:39;93541.31;;;-0.57;74.85
75219;BME280;63801;49.414;19.474;2023-04-07T00:17:39;93546.84;;;-0.54;74.76
75219;BME280;63801;49.414;19.474;2023-04-07T00:19:39;93551.84;;;-0.52;74.90
75219;BME280;63801;49.414;19.474;2023-04-07T00:21:40;93545.47;;;-0.51;74.63
75219;BME280;63801;49.414;19.474;2023-04-07T00:23:40;93535.69;;;-0.51;74.98
75219;BME280;63801;49.414;19.474;2023-04-07T00:25:41;93536.75;;;-0.52;74.78
75219;BME280;63801;49.414;19.474;2023-04-07T00:27:42;93537.81;;;-0.53;74.90
75219;BME280;63801;49.414;19.474;2023-04-07T00:29:42;93540.47;;;-0.53;74.63
75219;BME280;63801;49.414;19.474;2023-04-07T00:31:45;93547.84;;;-0.50;74.91
75219;BME280;63801;49.414;19.474;2023-04-07T00:33:45;93529.81;;;-0.48;74.74
75219;BME280;63801;49.414;19.474;2023-04-07T00:35:47;93519.22;;;-0.48;74.76
75219;BME280;63801;49.414;19.474;2023-04-07T00:37:47;93521.59;;;-0.46;74.51
75219;BME280;63801;49.414;19.474;2023-04-07T00:39:48;93518.66;;;-0.44;74.53
75219;BME280;63801;49.414;19.474;2023-04-07T00:41:50;93522.31;;;-0.40;74.81
75219;BME280;63801;49.414;19.474;2023-04-07T00:43:50;93527.31;;;-0.39;74.50
75219;BME280;63801;49.414;19.474;2023-04-07T00:45:52;93519.88;;;-0.37;74.45
75219;BME280;63801;49.414;19.474;2023-04-07T00:47:53;93522.47;;;-0.32;74.57
75219;BME280;63801;49.414;19.474;2023-04-07T00:49:53;93496.13;;;-0.42;74.59
75219;BME280;63801;49.414;19.474;2023-04-07T00:51:57;93509.50;;;-0.33;74.62
75219;BME280;63801;49.414;19.474;2023-04-07T00:53:59;93505.34;;;-0.39;74.52
75219;BME280;63801;49.414;19.474;2023-04-07T00:55:59;93492.19;;;-0.44;74.39
75219;BME280;63801;49.414;19.474;2023-04-07T00:58:00;93518.50;;;-0.34;74.65
75219;BME280;63801;49.414;19.474;2023-04-07T01:00:00;93501.03;;;-0.35;74.52
75219;BME280;63801;49.414;19.474;2023-04-07T01:02:15;93506.56;;;-0.32;74.49
75219;BME280;63801;49.414;19.474;2023-04-07T01:04:26;93506.78;;;-0.28;74.39
75219;BME280;63801;49.414;19.474;2023-04-07T01:06:32;93502.56;;;-0.29;74.39
75219;BME280;63801;49.414;19.474;2023-04-07T01:08:47;93496.97;;;-0.28;74.63
75219;BME280;63801;49.414;19.474;2023-04-07T01:10:52;93490.91;;;-0.28;74.59
75219;BME280;63801;49.414;19.474;2023-04-07T01:13:21;93490.09;;;-0.29;74.83
75219;BME280;63801;49.414;19.474;2023-04-07T01:15:24;93494.53;;;-0.24;74.34
75219;BME280;63801;49.414;19.474;2023-04-07T01:17:26;93478.94;;;-0.26;74.68
75219;BME280;63801;49.414;19.474;2023-04-07T01:21:35;93485.22;;;-0.22;74.21
75219;BME280;63801;49.414;19.474;2023-04-07T01:23:46;93481.50;;;-0.21;74.55
75219;BME280;63801;49.414;19.474;2023-04-07T01:30:09;93493.88;;;-0.16;74.23
75219;BME280;63801;49.414;19.474;2023-04-07T01:32:11;93494.94;;;-0.17;74.44
75219;BME280;63801;49.414;19.474;2023-04-07T01:34:12;93484.94;;;-0.20;74.39
75219;BME280;63801;49.414;19.474;2023-04-07T01:36:14;93482.69;;;-0.13;74.52
75219;BME280;63801;49.414;19.474;2023-04-07T01:38:16;93477.50;;;-0.18;74.52
75219;BME280;63801;49.414;19.474;2023-04-07T01:40:17;93479.00;;;-0.12;74.43
75219;BME280;63801;49.414;19.474;2023-04-07T01:42:18;93478.44;;;-0.09;74.43
75219;BME280;63801;49.414;19.474;2023-04-07T01:44:20;93460.53;;;-0.17;74.60
75219;BME280;63801;49.414;19.474;2023-04-07T01:46:21;93480.97;;;-0.04;74.44
75219;BME280;63801;49.414;19.474;2023-04-07T01:48:22;93477.25;;;-0.03;74.16
75219;BME280;63801;49.414;19.474;2023-04-07T01:50:23;93477.78;;;-0.01;74.41
75219;BME280;63801;49.414;19.474;2023-04-07T01:52:25;93474.59;;;-0.03;74.56
75219;BME280;63801;49.414;19.474;2023-04-07T01:54:27;93467.25;;;-0.06;74.50
75219;BME280;63801;49.414;19.474;2023-04-07T01:56:28;93475.31;;;0.03;74.50
75219;BME280;63801;49.414;19.474;2023-04-07T01:58:28;93463.16;;;0.02;74.36
75219;BME280;63801;49.414;19.474;2023-04-07T02:00:28;93459.44;;;0.03;74.08
75219;BME280;63801;49.414;19.474;2023-04-07T02:02:29;93467.84;;;0.05;74.31
75219;BME280;63801;49.414;19.474;2023-04-07T02:06:44;93458.84;;;0.06;74.49
75219;BME280;63801;49.414;19.474;2023-04-07T02:08:51;93452.75;;;0.05;74.01
75219;BME280;63801;49.414;19.474;2023-04-07T02:10:54;93453.25;;;0.07;74.41
75219;BME280;63801;49.414;19.474;2023-04-07T02:12:55;93453.53;;;0.06;74.23
75219;BME280;63801;49.414;19.474;2023-04-07T02:14:57;93461.00;;;0.04;74.17
75219;BME280;63801;49.414;19.474;2023-04-07T02:16:58;93457.06;;;0.01;74.34
75219;BME280;63801;49.414;19.474;2023-04-07T02:19:00;93457.66;;;-0.02;74.35
75219;BME280;63801;49.414;19.474;2023-04-07T02:21:03;93439.75;;;-0.10;74.28
75219;BME280;63801;49.414;19.474;2023-04-07T02:23:07;93451.84;;;-0.04;74.25
75219;BME280;63801;49.414;19.474;2023-04-07T02:25:27;93437.53;;;-0.03;74.34
75219;BME280;63801;49.414;19.474;2023-04-07T02:27:28;93439.88;;;-0.02;74.51
75219;BME280;63801;49.414;19.474;2023-04-07T02:29:28;93442.75;;;0.02;74.41
75219;BME280;63801;49.414;19.474;2023-04-07T02:31:29;93425.84;;;-0.02;74.51
75219;BME280;63801;49.414;19.474;2023-04-07T02:33:29;93437.63;;;0.06;74.33
75219;BME280;63801;49.414;19.474;2023-04-07T02:35:30;93434.72;;;0.07;74.61
75219;BME280;63801;49.414;19.474;2023-04-07T02:37:30;93444.25;;;0.08;74.57
75219;BME280;63801;49.414;19.474;2023-04-07T02:39:30;93443.13;;;0.09;74.41
75219;BME280;63801;49.414;19.474;2023-04-07T02:41:31;93435.31;;;0.04;74.51
75219;BME280;63801;49.414;19.474;2023-04-07T02:43:31;93450.03;;;0.10;74.66
75219;BME280;63801;49.414;19.474;2023-04-07T02:45:31;93450.81;;;0.11;74.40
75219;BME280;63801;49.414;19.474;2023-04-07T02:47:32;93451.59;;;0.11;74.41
75219;BME280;63801;49.414;19.474;2023-04-07T02:49:33;93450.31;;;0.09;74.53
75219;BME280;63801;49.414;19.474;2023-04-07T02:51:33;93446.38;;;0.06;74.41
75219;BME280;63801;49.414;19.474;2023-04-07T02:53:33;93440.09;;;0.02;74.45
75219;BME280;63801;49.414;19.474;2023-04-07T02:55:34;93445.38;;;0.02;74.50
75219;BME280;63801;49.414;19.474;2023-04-07T02:57:34;93448.81;;;0.03;74.71
75219;BME280;63801;49.414;19.474;2023-04-07T02:59:35;93449.69;;;-0.02;74.60
75219;BME280;63801;49.414;19.474;2023-04-07T03:01:35;93447.63;;;-0.05;74.67
75219;BME280;63801;49.414;19.474;2023-04-07T03:03:35;93467.19;;;-0.01;74.65
75219;BME280;63801;49.414;19.474;2023-04-07T03:05:36;93469.03;;;-0.02;74.59
75219;BME280;63801;49.414;19.474;2023-04-07T03:07:36;93450.75;;;-0.03;74.42
75219;BME280;63801;49.414;19.474;2023-04-07T03:09:36;93453.94;;;-0.01;74.57
75219;BME280;63801;49.414;19.474;2023-04-07T03:11:37;93467.66;;;0.01;74.66
75219;BME280;63801;49.414;19.474;2023-04-07T03:13:37;93461.78;;;0.04;74.47
75219;BME280;63801;49.414;19.474;2023-04-07T03:15:37;93467.09;;;0.04;74.67
75219;BME280;63801;49.414;19.474;2023-04-07T03:17:38;93465.72;;;0.07;74.87
75219;BME280;63801;49.414;19.474;2023-04-07T03:19:38;93460.41;;;0.07;74.42
75219;BME280;63801;49.414;19.474;2023-04-07T03:21:39;93455.91;;;0.07;74.67
75219;BME280;63801;49.414;19.474;2023-04-07T03:23:39;93440.16;;;-0.03;74.37
75219;BME280;63801;49.414;19.474;2023-04-07T03:25:41;93439.81;;;0.04;74.78
75219;BME280;63801;49.414;19.474;2023-04-07T03:27:41;93455.81;;;0.12;74.62
75219;BME280;63801;49.414;19.474;2023-04-07T03:29:42;93451.59;;;0.11;74.82
75219;BME280;63801;49.414;19.474;2023-04-07T03:31:42;93447.88;;;0.12;74.23
75219;BME280;63801;49.414;19.474;2023-04-07T03:33:43;93456.63;;;0.13;74.73
75219;BME280;63801;49.414;19.474;2023-04-07T03:35:43;93457.41;;;0.13;74.35
75219;BME280;63801;49.414;19.474;2023-04-07T03:37:43;93452.59;;;0.15;74.55
75219;BME280;63801;49.414;19.474;2023-04-07T03:39:44;93453.19;;;0.12;74.62
75219;BME280;63801;49.414;19.474;2023-04-07T03:41:44;93450.03;;;0.10;74.47
75219;BME280;63801;49.414;19.474;2023-04-07T03:43:45;93445.50;;;0.11;74.36
75219;BME280;63801;49.414;19.474;2023-04-07T03:45:46;93445.50;;;0.11;74.40
75219;BME280;63801;49.414;19.474;2023-04-07T03:47:46;93442.16;;;0.05;74.66
75219;BME280;63801;49.414;19.474;2023-04-07T03:49:47;93451.59;;;0.11;74.10
75219;BME280;63801;49.414;19.474;2023-04-07T03:51:47;93450.81;;;0.11;74.36
75219;BME280;63801;49.414;19.474;2023-04-07T03:53:47;93453.19;;;0.12;74.65
75219;BME280;63801;49.414;19.474;2023-04-07T03:55:48;93441.09;;;0.06;74.59
75219;BME280;63801;49.414;19.474;2023-04-07T03:57:48;93447.88;;;0.12;74.40
75219;BME280;63801;49.414;19.474;2023-04-07T03:59:48;93449.66;;;0.17;74.54
75219;BME280;63801;49.414;19.474;2023-04-07T04:01:50;93445.44;;;0.16;74.38
75219;BME280;63801;49.414;19.474;2023-04-07T04:03:50;93448.06;;;0.16;74.46
75219;BME280;63801;49.414;19.474;2023-04-07T04:05:51;93440.13;;;0.16;74.24
75219;BME280;63801;49.414;19.474;2023-04-07T04:07:51;93444.03;;;0.18;74.61
75219;BME280;63801;49.414;19.474;2023-04-07T04:09:52;93445.16;;;0.17;74.89
75219;BME280;63801;49.414;19.474;2023-04-07T04:11:52;93452.00;;;0.18;74.71
75219;BME280;63801;49.414;19.474;2023-04-07T04:13:52;93446.50;;;0.15;74.44
75219;BME280;63801;49.414;19.474;2023-04-07T04:15:53;93455.75;;;0.17;74.68
75219;BME280;63801;49.414;19.474;2023-04-07T04:17:53;93449.66;;;0.17;74.58
75219;BME280;63801;49.414;19.474;2023-04-07T04:19:53;93452.00;;;0.18;74.59
75219;BME280;63801;49.414;19.474;2023-04-07T04:21:54;93450.44;;;0.17;74.50
75219;BME280;63801;49.414;19.474;2023-04-07T04:23:54;93451.25;;;0.18;74.73
75219;BME280;63801;49.414;19.474;2023-04-07T04:25:55;93448.88;;;0.16;74.51
75219;BME280;63801;49.414;19.474;2023-04-07T04:27:56;93435.09;;;0.14;74.76
75219;BME280;63801;49.414;19.474;2023-04-07T04:29:56;93446.41;;;0.20;74.61
75219;BME280;63801;49.414;19.474;2023-04-07T04:31:56;93454.09;;;0.21;74.25
75219;BME280;63801;49.414;19.474;2023-04-07T04:33:57;93450.56;;;0.26;74.48
75219;BME280;63801;49.414;19.474;2023-04-07T04:35:57;93461.38;;;0.29;74.71
75219;BME280;63801;49.414;19.474;2023-04-07T04:37:57;93466.06;;;0.32;74.65
75219;BME280;63801;49.414;19.474;2023-04-07T04:39:58;93462.84;;;0.35;74.53
75219;BME280;63801;49.414;19.474;2023-04-07T04:41:58;93467.56;;;0.38;74.65
75219;BME280;63801;49.414;19.474;2023-04-07T04:43:59;93466.50;;;0.39;74.29
75219;BME280;63801;49.414;19.474;2023-04-07T04:45:59;93466.00;;;0.37;74.42
75219;BME280;63801;49.414;19.474;2023-04-07T04:48:00;93472.88;;;0.38;74.53
75219;BME280;63801;49.414;19.474;2023-04-07T04:50:00;93466.59;;;0.34;74.84
75219;BME280;63801;49.414;19.474;2023-04-07T04:52:00;93479.53;;;0.36;74.54
75219;BME280;63801;49.414;19.474;2023-04-07T04:54:01;93479.75;;;0.39;74.60
75219;BME280;63801;49.414;19.474;2023-04-07T04:56:03;93479.25;;;0.37;74.36
75219;BME280;63801;49.414;19.474;2023-04-07T04:58:03;93480.50;;;0.40;74.55
75219;BME280;63801;49.414;19.474;2023-04-07T05:00:05;93479.75;;;0.39;74.51
75219;BME280;63801;49.414;19.474;2023-04-07T05:02:06;93479.16;;;0.42;74.67
75219;BME280;63801;49.414;19.474;2023-04-07T05:04:07;93481.22;;;0.45;74.81
75219;BME280;63801;49.414;19.474;2023-04-07T05:06:08;93476.72;;;0.46;74.52
75219;BME280;63801;49.414;19.474;2023-04-07T05:08:10;93477.50;;;0.47;74.70
75219;BME280;63801;49.414;19.474;2023-04-07T05:10:10;93462.75;;;0.40;74.75
75219;BME280;63801;49.414;19.474;2023-04-07T05:12:10;93472.09;;;0.52;74.87
75219;BME280;63801;49.414;19.474;2023-04-07T05:14:11;93457.34;;;0.45;74.81
75219;BME280;63801;49.414;19.474;2023-04-07T05:16:11;93471.94;;;0.62;74.64
75219;BME280;63801;49.414;19.474;2023-04-07T05:18:12;93469.38;;;0.70;74.58
75219;BME280;63801;49.414;19.474;2023-04-07T05:20:12;93452.09;;;0.73;74.63
75219;BME280;63801;49.414;19.474;2023-04-07T05:22:13;93446.78;;;0.73;74.56
75219;BME280;63801;49.414;19.474;2023-04-07T05:24:13;93459.84;;;0.83;74.65
75219;BME280;63801;49.414;19.474;2023-04-07T05:26:13;93469.59;;;0.87;74.49
75219;BME280;63801;49.414;19.474;2023-04-07T05:28:14;93473.31;;;0.86;74.42
75219;BME280;63801;49.414;19.474;2023-04-07T05:30:14;93477.84;;;0.86;74.24
75219;BME280;63801;49.414;19.474;2023-04-07T05:32:15;93479.59;;;0.90;74.51
75219;BME280;63801;49.414;19.474;2023-04-07T05:34:16;93487.28;;;0.92;74.54
75219;BME280;63801;49.414;19.474;2023-04-07T05:36:16;93488.25;;;0.96;74.62
75219;BME280;63801;49.414;19.474;2023-04-07T05:38:16;93470.75;;;0.95;74.55
75219;BME280;63801;49.414;19.474;2023-04-07T05:40:17;93480.13;;;1.06;74.59
75219;BME280;63801;49.414;19.474;2023-04-07T05:42:17;93478.44;;;1.10;74.60
75219;BME280;63801;49.414;19.474;2023-04-07T05:44:17;93468.97;;;1.18;74.48
75219;BME280;63801;49.414;19.474;2023-04-07T05:46:18;93480.75;;;1.25;74.63
75219;BME280;63801;49.414;19.474;2023-04-07T05:48:18;93468.38;;;1.34;74.89
75219;BME280;63801;49.414;19.474;2023-04-07T05:50:18;93472.56;;;1.49;74.95
75219;BME280;63801;49.414;19.474;2023-04-07T05:52:19;93472.44;;;1.68;75.04
75219;BME280;63801;49.414;19.474;2023-04-07T05:54:19;93468.34;;;1.84;74.86
75219;BME280;63801;49.414;19.474;2023-04-07T05:56:20;93473.00;;;2.01;74.51
75219;BME280;63801;49.414;19.474;2023-04-07T05:58:20;93475.13;;;2.12;74.53
75219;BME280;63801;49.414;19.474;2023-04-07T06:00:21;93475.66;;;2.23;74.15
75219;BME280;63801;49.414;19.474;2023-04-07T06:02:21;93476.34;;;2.29;73.93
75219;BME280;63801;49.414;19.474;2023-04-07T06:04:22;93468.13;;;2.39;74.08
75219;BME280;63801;49.414;19.474;2023-04-07T06:06:22;93470.22;;;2.50;73.94
75219;BME280;63801;49.414;19.474;2023-04-07T06:08:22;93469.16;;;2.60;73.42
75219;BME280;63801;49.414;19.474;2023-04-07T06:10:23;93473.75;;;2.68;73.39
75219;BME280;63801;49.414;19.474;2023-04-07T06:12:23;93466.72;;;2.72;73.50
75219;BME280;63801;49.414;19.474;2023-04-07T06:14:24;93462.72;;;2.83;73.13
75219;BME280;63801;49.414;19.474;2023-04-07T06:16:24;93475.28;;;2.91;73.11
75219;BME280;63801;49.414;19.474;2023-04-07T06:18:25;93466.03;;;2.97;72.88
75219;BME280;63801;49.414;19.474;2023-04-07T06:20:25;93467.00;;;3.01;72.69
75219;BME280;63801;49.414;19.474;2023-04-07T06:22:26;93476.88;;;3.01;72.21
75219;BME280;63801;49.414;19.474;2023-04-07T06:24:27;93465.25;;;2.97;72.06
75219;BME280;63801;49.414;19.474;2023-04-07T06:26:27;93469.94;;;2.91;71.93
75219;BME280;63801;49.414;19.474;2023-04-07T06:28:28;93462.38;;;2.85;71.97
75219;BME280;63801;49.414;19.474;2023-04-07T06:30:28;93467.06;;;2.79;71.77
75219;BME280;63801;49.414;19.474;2023-04-07T06:32:28;93468.97;;;2.79;71.88
75219;BME280;63801;49.414;19.474;2023-04-07T06:34:29;93476.44;;;2.77;71.91
75219;BME280;63801;49.414;19.474;2023-04-07T06:36:29;93470.16;;;2.72;72.22
75219;BME280;63801;49.414;19.474;2023-04-07T06:38:29;93454.06;;;2.78;72.00
75219;BME280;63801;49.414;19.474;2023-04-07T06:40:30;93458.34;;;2.87;72.06
75219;BME280;63801;49.414;19.474;2023-04-07T06:42:31;93460.72;;;2.97;71.97
75219;BME280;63801;49.414;19.474;2023-04-07T06:44:31;93462.63;;;3.05;71.86
75219;BME280;63801;49.414;19.474;2023-04-07T06:46:31;93463.91;;;3.16;71.97
75219;BME280;63801;49.414;19.474;2023-04-07T06:48:32;93436.66;;;3.20;72.07
75219;BME280;63801;49.414;19.474;2023-04-07T06:50:32;93446.44;;;3.50;72.15
75219;BME280;63801;49.414;19.474;2023-04-07T06:52:32;93444.91;;;3.75;72.04
75219;BME280;63801;49.414;19.474;2023-04-07T06:54:33;93442.25;;;4.00;71.78
75219;BME280;63801;49.414;19.474;2023-04-07T06:56:33;93438.31;;;4.24;71.17
75219;BME280;63801;49.414;19.474;2023-04-07T06:58:34;93445.19;;;4.42;71.05
75219;BME280;63801;49.414;19.474;2023-04-07T07:00:35;93451.09;;;4.56;70.99
75219;BME280;63801;49.414;19.474;2023-04-07T07:02:35;93457.19;;;4.65;69.90
75219;BME280;63801;49.414;19.474;2023-04-07T07:04:35;93461.28;;;4.71;69.99
75219;BME280;63801;49.414;19.474;2023-04-07T07:06:36;93468.16;;;4.81;70.01
75219;BME280;63801;49.414;19.474;2023-04-07T07:08:36;93470.34;;;4.87;69.87
75219;BME280;63801;49.414;19.474;2023-04-07T07:10:36;93471.59;;;4.90;69.57
75219;BME280;63801;49.414;19.474;2023-04-07T07:12:37;93456.19;;;4.87;69.78
75219;BME280;63801;49.414;19.474;2023-04-07T07:14:37;93461.06;;;4.93;69.36
75219;BME280;63801;49.414;19.474;2023-04-07T07:16:37;93467.50;;;4.92;69.21
75219;BME280;63801;49.414;19.474;2023-04-07T07:18:38;93456.38;;;4.90;69.05
75219;BME280;63801;49.414;19.474;2023-04-07T07:20:38;93463.41;;;4.95;69.31
75219;BME280;63801;49.414;19.474;2023-04-07T07:22:38;93454.28;;;4.96;69.68
75219;BME280;63801;49.414;19.474;2023-04-07T07:24:39;93457.13;;;5.00;69.41
75219;BME280;63801;49.414;19.474;2023-04-07T07:26:39;93464.31;;;5.08;69.66
75219;BME280;63801;49.414;19.474;2023-04-07T07:28:40;93466.63;;;5.18;69.63
75219;BME280;63801;49.414;19.474;2023-04-07T07:30:41;93464.09;;;5.21;69.00
75219;BME280;63801;49.414;19.474;2023-04-07T07:32:41;93464.41;;;5.20;67.89
75219;BME280;63801;49.414;19.474;2023-04-07T07:34:44;93459.88;;;5.12;67.47
75219;BME280;63801;49.414;19.474;2023-04-07T07:36:44;93459.59;;;5.05;67.78
75219;BME280;63801;49.414;19.474;2023-04-07T07:38:45;93470.00;;;4.97;66.95
75219;BME280;63801;49.414;19.474;2023-04-07T07:40:45;93482.13;;;4.95;67.77
75219;BME280;63801;49.414;19.474;2023-04-07T07:42:46;93479.28;;;4.91;67.42
75219;BME280;63801;49.414;19.474;2023-04-07T07:44:46;93486.84;;;4.89;67.39
75219;BME280;63801;49.414;19.474;2023-04-07T07:46:48;93484.34;;;4.76;66.95
75219;BME280;63801;49.414;19.474;2023-04-07T07:48:49;93479.22;;;4.62;67.21
75219;BME280;63801;49.414;19.474;2023-04-07T07:50:50;93474.66;;;4.54;67.36
75219;BME280;63801;49.414;19.474;2023-04-07T07:52:51;93478.16;;;4.46;67.54
75219;BME280;63801;49.414;19.474;2023-04-07T07:54:51;93477.03;;;4.38;67.47
75219;BME280;63801;49.414;19.474;2023-04-07T07:56:52;93463.88;;;4.25;67.52
75219;BME280;63801;49.414;19.474;2023-04-07T07:58:52;93481.44;;;4.34;67.91
75219;BME280;63801;49.414;19.474;2023-04-07T08:00:52;93478.31;;;4.32;67.40
75219;BME280;63801;49.414;19.474;2023-04-07T08:02:53;93479.72;;;4.30;67.99
75219;BME280;63801;49.414;19.474;2023-04-07T08:04:54;93480.84;;;4.29;67.80
75219;BME280;63801;49.414;19.474;2023-04-07T08:06:54;93466.72;;;4.20;67.45
75219;BME280;63801;49.414;19.474;2023-04-07T08:08:55;93466.56;;;4.25;67.72
75219;BME280;63801;49.414;19.474;2023-04-07T08:10:55;93472.03;;;4.28;67.70
75219;BME280;63801;49.414;19.474;2023-04-07T08:12:55;93471.09;;;4.24;67.71
75219;BME280;63801;49.414;19.474;2023-04-07T08:14:56;93476.59;;;4.28;67.56
75219;BME280;63801;49.414;19.474;2023-04-07T08:16:56;93480.34;;;4.27;67.08
75219;BME280;63801;49.414;19.474;2023-04-07T08:18:56;93473.78;;;4.07;66.56
75219;BME280;63801;49.414;19.474;2023-04-07T08:20:57;93485.38;;;3.94;66.55
75219;BME280;63801;49.414;19.474;2023-04-07T08:22:57;93479.88;;;3.73;67.11
75219;BME280;63801;49.414;19.474;2023-04-07T08:24:58;93494.13;;;3.77;67.18
75219;BME280;63801;49.414;19.474;2023-04-07T08:26:59;93490.38;;;3.70;67.06
75219;BME280;63801;49.414;19.474;2023-04-07T08:29:00;93485.66;;;3.67;67.41
75219;BME280;63801;49.414;19.474;2023-04-07T08:31:00;93475.94;;;3.62;67.73
75219;BME280;63801;49.414;19.474;2023-04-07T08:33:01;93464.66;;;3.65;67.97
75219;BME280;63801;49.414;19.474;2023-04-07T08:35:03;93475.03;;;3.75;67.78
75219;BME280;63801;49.414;19.474;2023-04-07T08:37:03;93476.13;;;3.83;67.97
75219;BME280;63801;49.414;19.474;2023-04-07T08:39:03;93472.50;;;3.96;67.71
75219;BME280;63801;49.414;19.474;2023-04-07T08:41:11;93483.19;;;4.04;67.50
75219;BME280;63801;49.414;19.474;2023-04-07T08:43:12;93484.13;;;4.00;66.90
75219;BME280;63801;49.414;19.474;2023-04-07T08:45:15;93488.66;;;3.99;66.97
75219;BME280;63801;49.414;19.474;2023-04-07T08:47:16;93480.38;;;4.01;66.80
75219;BME280;63801;49.414;19.474;2023-04-07T08:49:17;93482.41;;;4.04;67.40
75219;BME280;63801;49.414;19.474;2023-04-07T08:51:43;93478.78;;;4.08;66.99
75219;BME280;63801;49.414;19.474;2023-04-07T08:53:49;93476.13;;;4.08;66.70
75219;BME280;63801;49.414;19.474;2023-04-07T08:55:50;93474.72;;;4.02;66.80
75219;BME280;63801;49.414;19.474;2023-04-07T08:57:52;93476.28;;;4.03;67.15
75219;BME280;63801;49.414;19.474;2023-04-07T08:59:52;93470.94;;;4.03;67.16
75219;BME280;63801;49.414;19.474;2023-04-07T09:01:53;93470.00;;;3.99;66.98
75219;BME280;63801;49.414;19.474;2023-04-07T09:03:55;93483.81;;;4.01;67.23
75219;BME280;63801;49.414;19.474;2023-04-07T09:05:56;93481.00;;;4.06;67.41
75219;BME280;63801;49.414;19.474;2023-04-07T09:07:57;93452.13;;;4.08;67.75
75219;BME280;63801;49.414;19.474;2023-04-07T09:09:58;93456.50;;;4.22;67.48
75219;BME280;63801;49.414;19.474;2023-04-07T09:11:59;93470.75;;;4.43;66.89
75219;BME280;63801;49.414;19.474;2023-04-07T09:13:59;93466.34;;;4.47;66.94
75219;BME280;63801;49.414;19.474;2023-04-07T09:16:01;93464.16;;;4.49;67.39
75219;BME280;63801;49.414;19.474;2023-04-07T09:18:02;93465.22;;;4.57;66.80
75219;BME280;63801;49.414;19.474;2023-04-07T09:20:03;93460.81;;;4.61;66.45
75219;BME280;63801;49.414;19.474;2023-04-07T09:22:03;93464.28;;;4.61;66.87
75219;BME280;63801;49.414;19.474;2023-04-07T09:24:20;93473.69;;;4.67;67.17
75219;BME280;63801;49.414;19.474;2023-04-07T09:26:23;93459.09;;;4.73;67.00
75219;BME280;63801;49.414;19.474;2023-04-07T09:28:24;93456.69;;;4.80;66.92
75219;BME280;63801;49.414;19.474;2023-04-07T09:30:25;93472.38;;;4.90;66.65
75219;BME280;63801;49.414;19.474;2023-04-07T09:32:34;93479.75;;;4.93;66.75
75219;BME280;63801;49.414;19.474;2023-04-07T09:34:39;93474.41;;;4.93;66.70
75219;BME280;63801;49.414;19.474;2023-04-07T09:36:40;93465.16;;;4.91;66.88
75219;BME280;63801;49.414;19.474;2023-04-07T09:38:42;93477.97;;;5.06;66.90
75219;BME280;63801;49.414;19.474;2023-04-07T09:40:43;93473.38;;;5.15;66.64
75219;BME280;63801;49.414;19.474;2023-04-07T09:42:45;93483.25;;;5.23;66.57
75219;BME280;63801;49.414;19.474;2023-04-07T09:44:45;93484.50;;;5.26;66.55
75219;BME280;63801;49.414;19.474;2023-04-07T09:46:57;93485.59;;;5.25;66.45
75219;BME280;63801;49.414;19.474;2023-04-07T09:49:02;93484.22;;;5.19;66.20
75219;BME280;63801;49.414;19.474;2023-04-07T09:51:12;93481.72;;;5.14;66.35
75219;BME280;63801;49.414;19.474;2023-04-07T09:53:13;93480.91;;;5.22;66.69
75219;BME280;63801;49.414;19.474;2023-04-07T09:55:14;93486.84;;;5.27;66.91
75219;BME280;63801;49.414;19.474;2023-04-07T09:57:15;93484.47;;;5.34;66.70
75219;BME280;63801;49.414;19.474;2023-04-07T09:59:18;93482.84;;;5.42;66.75
75219;BME280;63801;49.414;19.474;2023-04-07T10:01:20;93481.72;;;5.52;66.90
75219;BME280;63801;49.414;19.474;2023-04-07T10:03:20;93475.84;;;5.58;66.77
75219;BME280;63801;49.414;19.474;2023-04-07T10:05:21;93478.47;;;5.67;66.52
75219;BME280;63801;49.414;19.474;2023-04-07T10:07:21;93477.78;;;5.78;66.18
75219;BME280;63801;49.414;19.474;2023-04-07T10:09:23;93479.91;;;5.85;66.34
75219;BME280;63801;49.414;19.474;2023-04-07T10:11:24;93462.66;;;5.82;66.30
75219;BME280;63801;49.414;19.474;2023-04-07T10:13:25;93470.94;;;5.90;66.36
75219;BME280;63801;49.414;19.474;2023-04-07T10:15:26;93472.16;;;6.01;66.20
75219;BME280;63801;49.414;19.474;2023-04-07T10:17:27;93476.97;;;6.07;66.27
75219;BME280;63801;49.414;19.474;2023-04-07T10:19:31;93468.44;;;6.14;66.10
75219;BME280;63801;49.414;19.474;2023-04-07T10:21:38;93463.50;;;6.16;66.02
75219;BME280;63801;49.414;19.474;2023-04-07T10:23:50;93472.44;;;6.20;65.65
75219;BME280;63801;49.414;19.474;2023-04-07T10:25:53;93472.00;;;6.18;65.71
75219;BME280;63801;49.414;19.474;2023-04-07T10:27:59;93471.34;;;6.21;65.94
75219;BME280;63801;49.414;19.474;2023-04-07T10:30:06;93462.72;;;6.15;65.99
75219;BME280;63801;49.414;19.474;2023-04-07T10:32:11;93473.38;;;6.24;65.87
75219;BME280;63801;49.414;19.474;2023-04-07T10:34:12;93462.53;;;6.20;66.02
75219;BME280;63801;49.414;19.474;2023-04-07T10:36:12;93470.84;;;6.27;66.09
75219;BME280;63801;49.414;19.474;2023-04-07T10:38:13;93475.75;;;6.38;66.17
75219;BME280;63801;49.414;19.474;2023-04-07T10:49:07;93465.56;;;6.85;65.67
75219;BME280;63801;49.414;19.474;2023-04-07T10:51:12;93468.47;;;6.92;65.68
75219;BME280;63801;49.414;19.474;2023-04-07T10:53:14;93461.44;;;6.87;65.42
75219;BME280;63801;49.414;19.474;2023-04-07T10:57:31;93467.38;;;6.93;65.23
75219;BME280;63801;49.414;19.474;2023-04-07T10:59:32;93472.72;;;6.93;65.24
75219;BME280;63801;49.414;19.474;2023-04-07T11:01:33;93466.25;;;6.94;65.22